sensor_id;sensor_type;location;lat;lon;timestamp;pressure;altitude;pressure_sealevel;temperature;humidity
74627;BME280;63132;52.268;5.192;2022-09-29T00:01:05;99892.81;;;4.88;99.43
74627;BME280;63132;52.268;5.192;2022-09-29T00:03:30;99875.19;;;4.89;99.53
74627;BME280;63132;52.268;5.192;2022-09-29T00:05:56;99881.03;;;4.80;99.52
74627;BME280;63132;52.268;5.192;2022-09-29T00:08:25;99879.50;;;4.86;99.91
74627;BME280;63132;52.268;5.192;2022-09-29T00:10:51;99877.53;;;4.80;99.66
74627;BME280;63132;52.268;5.192;2022-09-29T00:13:17;99875.16;;;4.71;99.50
74627;BME280;63132;52.268;5.192;2022-09-29T00:15:42;99883.38;;;4.71;99.15
74627;BME280;63132;52.268;5.192;2022-09-29T00:18:08;99873.19;;;4.71;99.52
74627;BME280;63132;52.268;5.192;2022-09-29T00:20:35;99871.59;;;4.67;99.60
74627;BME280;63132;52.268;5.192;2022-09-29T00:23:01;99873.94;;;4.65;99.38
74627;BME280;63132;52.268;5.192;2022-09-29T00:25:28;99873.94;;;4.65;99.24
74627;BME280;63132;52.268;5.192;2022-09-29T00:27:53;99872.00;;;4.62;99.34
74627;BME280;63132;52.268;5.192;2022-09-29T00:30:19;99867.66;;;4.61;99.10
74627;BME280;63132;52.268;5.192;2022-09-29T00:32:44;99870.00;;;4.59;99.62
74627;BME280;63132;52.268;5.192;2022-09-29T00:35:10;99862.56;;;4.59;99.42
74627;BME280;63132;52.268;5.192;2022-09-29T00:37:35;99869.63;;;4.60;99.59
74627;BME280;63132;52.268;5.192;2022-09-29T00:40:02;99864.53;;;4.66;99.55
74627;BME280;63132;52.268;5.192;2022-09-29T00:42:27;99873.13;;;4.61;99.39
74627;BME280;63132;52.268;5.192;2022-09-29T00:45:38;99869.22;;;4.58;99.36
74627;BME280;63132;52.268;5.192;2022-09-29T00:47:40;99871.56;;;4.49;99.38
74627;BME280;63132;52.268;5.192;2022-09-29T00:50:19;99873.09;;;4.47;99.45
74627;BME280;63132;52.268;5.192;2022-09-29T00:52:51;99870.38;;;4.54;99.71
74627;BME280;63132;52.268;5.192;2022-09-29T00:55:25;99878.59;;;4.54;99.39
74627;BME280;63132;52.268;5.192;2022-09-29T00:58:01;99877.00;;;4.45;99.30
74627;BME280;63132;52.268;5.192;2022-09-29T01:00:27;99877.00;;;4.45;99.09
74627;BME280;63132;52.268;5.192;2022-09-29T01:03:03;99876.59;;;4.43;99.52
74627;BME280;63132;52.268;5.192;2022-09-29T01:05:37;99876.59;;;4.40;99.53
74627;BME280;63132;52.268;5.192;2022-09-29T01:10:59;99872.69;;;4.41;99.37
74627;BME280;63132;52.268;5.192;2022-09-29T01:13:26;99872.28;;;4.35;99.56
74627;BME280;63132;52.268;5.192;2022-09-29T01:15:53;99877.75;;;4.35;99.80
74627;BME280;63132;52.268;5.192;2022-09-29T01:18:19;99872.22;;;4.28;99.61
74627;BME280;63132;52.268;5.192;2022-09-29T01:20:56;99876.19;;;4.38;99.98
74627;BME280;63132;52.268;5.192;2022-09-29T01:34:49;99871.09;;;4.33;99.62
74627;BME280;63132;52.268;5.192;2022-09-29T01:37:42;99875.75;;;4.25;99.67
74627;BME280;63132;52.268;5.192;2022-09-29T01:40:15;99880.03;;;4.19;99.35
74627;BME280;63132;52.268;5.192;2022-09-29T01:42:53;99885.91;;;4.21;99.18
74627;BME280;63132;52.268;5.192;2022-09-29T01:45:30;99884.72;;;4.22;99.37
74627;BME280;63132;52.268;5.192;2022-09-29T01:48:06;99884.72;;;4.19;99.73
74627;BME280;63132;52.268;5.192;2022-09-29T01:50:39;99886.22;;;4.09;99.42
74627;BME280;63132;52.268;5.192;2022-09-29T01:53:13;99884.25;;;4.06;99.22
74627;BME280;63132;52.268;5.192;2022-09-29T01:55:50;99883.91;;;4.11;99.71
74627;BME280;63132;52.268;5.192;2022-09-29T01:58:24;99883.91;;;4.14;100.00
74627;BME280;63132;52.268;5.192;2022-09-29T02:00:55;99883.91;;;4.11;99.77
74627;BME280;63132;52.268;5.192;2022-09-29T02:03:28;99885.44;;;4.05;99.54
74627;BME280;63132;52.268;5.192;2022-09-29T02:05:58;99886.59;;;4.04;99.88
74627;BME280;63132;52.268;5.192;2022-09-29T02:13:23;99887.78;;;4.03;99.74
74627;BME280;63132;52.268;5.192;2022-09-29T02:15:51;99888.13;;;4.01;99.92
74627;BME280;63132;52.268;5.192;2022-09-29T02:18:27;99893.25;;;4.03;100.00
74627;BME280;63132;52.268;5.192;2022-09-29T02:20:56;99888.91;;;4.02;99.33
74627;BME280;63132;52.268;5.192;2022-09-29T02:23:22;99892.13;;;4.11;99.78
74627;BME280;63132;52.268;5.192;2022-09-29T02:25:49;99885.38;;;3.98;99.83
74627;BME280;63132;52.268;5.192;2022-09-29T02:28:15;99883.09;;;4.07;100.00
74627;BME280;63132;52.268;5.192;2022-09-29T02:30:41;99883.50;;;4.12;100.00
74627;BME280;63132;52.268;5.192;2022-09-29T02:33:19;99891.69;;;4.09;100.00
74627;BME280;63132;52.268;5.192;2022-09-29T02:36:11;99886.25;;;4.12;100.00
74627;BME280;63132;52.268;5.192;2022-09-29T02:39:01;99888.50;;;4.00;99.67
74627;BME280;63132;52.268;5.192;2022-09-29T02:44:26;99888.16;;;4.08;99.70
74627;BME280;63132;52.268;5.192;2022-09-29T02:55:07;99887.34;;;3.97;99.64
74627;BME280;63132;52.268;5.192;2022-09-29T02:57:41;99876.72;;;3.92;99.62
74627;BME280;63132;52.268;5.192;2022-09-29T03:00:13;99884.50;;;3.86;99.66
74627;BME280;63132;52.268;5.192;2022-09-29T03:02:41;99887.69;;;3.88;99.94
74627;BME280;63132;52.268;5.192;2022-09-29T03:05:09;99884.50;;;3.86;99.91
74627;BME280;63132;52.268;5.192;2022-09-29T03:07:36;99884.88;;;3.81;100.00
74627;BME280;63132;52.268;5.192;2022-09-29T03:10:03;99890.78;;;3.87;99.93
74627;BME280;63132;52.268;5.192;2022-09-29T03:12:28;99889.59;;;3.84;99.66
74627;BME280;63132;52.268;5.192;2022-09-29T03:14:54;99885.28;;;3.83;100.00
74627;BME280;63132;52.268;5.192;2022-09-29T03:17:20;99891.56;;;3.84;100.00
74627;BME280;63132;52.268;5.192;2022-09-29T03:19:45;99893.06;;;3.78;100.00
74627;BME280;63132;52.268;5.192;2022-09-29T03:22:10;99896.63;;;3.82;99.94
74627;BME280;63132;52.268;5.192;2022-09-29T03:24:36;99893.47;;;3.80;99.75
74627;BME280;63132;52.268;5.192;2022-09-29T03:27:01;99888.75;;;3.73;99.80
74627;BME280;63132;52.268;5.192;2022-09-29T03:29:27;99888.75;;;3.77;100.00
74627;BME280;63132;52.268;5.192;2022-09-29T03:31:52;99880.53;;;3.77;100.00
74627;BME280;63132;52.268;5.192;2022-09-29T03:34:18;99887.97;;;3.73;99.77
74627;BME280;63132;52.268;5.192;2022-09-29T03:36:43;99890.66;;;3.69;99.54
74627;BME280;63132;52.268;5.192;2022-09-29T03:39:09;99886.34;;;3.68;99.75
74627;BME280;63132;52.268;5.192;2022-09-29T03:41:35;99892.59;;;3.65;99.63
74627;BME280;63132;52.268;5.192;2022-09-29T03:44:00;99894.13;;;3.59;100.00
74627;BME280;63132;52.268;5.192;2022-09-29T03:46:26;99899.22;;;3.64;99.85
74627;BME280;63132;52.268;5.192;2022-09-29T03:48:51;99899.94;;;3.57;99.98
74627;BME280;63132;52.268;5.192;2022-09-29T03:51:16;99905.47;;;3.61;100.00
74627;BME280;63132;52.268;5.192;2022-09-29T03:53:42;99899.22;;;3.64;100.00
74627;BME280;63132;52.268;5.192;2022-09-29T03:56:07;99903.84;;;3.56;99.94
74627;BME280;63132;52.268;5.192;2022-09-29T03:58:33;99901.88;;;3.53;100.00
74627;BME280;63132;52.268;5.192;2022-09-29T04:00:58;99908.47;;;3.49;99.82
74627;BME280;63132;52.268;5.192;2022-09-29T04:03:25;99904.56;;;3.50;100.00
74627;BME280;63132;52.268;5.192;2022-09-29T04:05:50;99907.34;;;3.53;100.00
74627;BME280;63132;52.268;5.192;2022-09-29T04:08:16;99902.22;;;3.48;99.83
74627;BME280;63132;52.268;5.192;2022-09-29T04:10:41;99897.13;;;3.47;99.74
74627;BME280;63132;52.268;5.192;2022-09-29T04:13:07;99910.03;;;3.43;99.72
74627;BME280;63132;52.268;5.192;2022-09-29T04:15:33;99903.72;;;3.39;100.00
74627;BME280;63132;52.268;5.192;2022-09-29T04:17:59;99920.97;;;3.46;99.87
74627;BME280;63132;52.268;5.192;2022-09-29T04:20:25;99921.75;;;3.47;100.00
74627;BME280;63132;52.268;5.192;2022-09-29T04:22:50;99922.56;;;3.47;100.00
74627;BME280;63132;52.268;5.192;2022-09-29T04:25:16;99928.81;;;3.48;99.76
74627;BME280;63132;52.268;5.192;2022-09-29T04:27:42;99926.78;;;3.38;99.83
74627;BME280;63132;52.268;5.192;2022-09-29T04:30:07;99931.91;;;3.43;99.92
74627;BME280;63132;52.268;5.192;2022-09-29T04:32:33;99930.25;;;3.34;99.60
74627;BME280;63132;52.268;5.192;2022-09-29T04:34:59;99931.00;;;3.31;99.98
74627;BME280;63132;52.268;5.192;2022-09-29T04:37:24;99932.97;;;3.34;99.75
74627;BME280;63132;52.268;5.192;2022-09-29T04:39:49;99934.91;;;3.30;99.50
74627;BME280;63132;52.268;5.192;2022-09-29T04:42:17;99939.25;;;3.35;100.00
74627;BME280;63132;52.268;5.192;2022-09-29T04:44:42;99938.81;;;3.29;99.58
74627;BME280;63132;52.268;5.192;2022-09-29T04:47:08;99937.53;;;3.20;99.50
74627;BME280;63132;52.268;5.192;2022-09-29T04:49:33;99942.72;;;3.28;100.00
74627;BME280;63132;52.268;5.192;2022-09-29T04:51:59;99937.59;;;3.27;99.62
74627;BME280;63132;52.268;5.192;2022-09-29T04:54:24;99945.81;;;3.27;100.00
74627;BME280;63132;52.268;5.192;2022-09-29T04:56:50;99942.66;;;3.25;100.00
74627;BME280;63132;52.268;5.192;2022-09-29T04:59:15;99941.19;;;2.94;99.41
74627;BME280;63132;52.268;5.192;2022-09-29T05:01:44;99935.88;;;3.08;100.00
74627;BME280;63132;52.268;5.192;2022-09-29T05:04:09;99943.31;;;3.11;100.00
74627;BME280;63132;52.268;5.192;2022-09-29T05:06:37;99944.47;;;3.10;100.00
74627;BME280;63132;52.268;5.192;2022-09-29T05:09:04;99947.25;;;3.14;100.00
74627;BME280;63132;52.268;5.192;2022-09-29T05:11:30;99952.75;;;3.17;100.00
74627;BME280;63132;52.268;5.192;2022-09-29T05:13:55;99954.25;;;3.11;100.00
74627;BME280;63132;52.268;5.192;2022-09-29T05:16:21;99949.47;;;3.01;100.00
74627;BME280;63132;52.268;5.192;2022-09-29T05:18:46;99961.66;;;3.07;100.00
74627;BME280;63132;52.268;5.192;2022-09-29T05:21:11;99954.84;;;2.94;99.79
74627;BME280;63132;52.268;5.192;2022-09-29T05:23:37;99954.69;;;3.13;100.00
74627;BME280;63132;52.268;5.192;2022-09-29T05:26:07;99966.72;;;3.09;100.00
74627;BME280;63132;52.268;5.192;2022-09-29T05:28:36;99951.09;;;3.09;100.00
74627;BME280;63132;52.268;5.192;2022-09-29T05:31:04;99964.78;;;3.09;100.00
74627;BME280;63132;52.268;5.192;2022-09-29T05:33:29;99961.66;;;3.11;100.00
74627;BME280;63132;52.268;5.192;2022-09-29T05:35:55;99965.09;;;3.00;100.00
74627;BME280;63132;52.268;5.192;2022-09-29T05:38:20;99971.25;;;2.94;99.64
74627;BME280;63132;52.268;5.192;2022-09-29T05:40:47;99970.97;;;3.02;100.00
74627;BME280;63132;52.268;5.192;2022-09-29T05:43:13;99977.53;;;2.98;99.62
74627;BME280;63132;52.268;5.192;2022-09-29T05:45:38;99981.53;;;3.04;100.00
74627;BME280;63132;52.268;5.192;2022-09-29T05:48:04;99979.84;;;2.92;100.00
74627;BME280;63132;52.268;5.192;2022-09-29T05:50:29;99981.53;;;3.04;100.00
74627;BME280;63132;52.268;5.192;2022-09-29T05:53:01;99981.53;;;3.04;100.00
74627;BME280;63132;52.268;5.192;2022-09-29T05:55:26;99988.25;;;3.10;100.00
74627;BME280;63132;52.268;5.192;2022-09-29T05:57:52;99983.97;;;3.13;100.00
74627;BME280;63132;52.268;5.192;2022-09-29T06:00:17;99995.34;;;3.18;99.91
74627;BME280;63132;52.268;5.192;2022-09-29T06:02:42;99984.78;;;3.13;99.88
74627;BME280;63132;52.268;5.192;2022-09-29T06:05:08;99993.03;;;3.20;100.00
74627;BME280;63132;52.268;5.192;2022-09-29T06:07:33;100004.41;;;3.22;100.00
74627;BME280;63132;52.268;5.192;2022-09-29T06:09:59;100000.53;;;3.27;100.00
74627;BME280;63132;52.268;5.192;2022-09-29T06:12:24;99999.00;;;3.29;100.00
74627;BME280;63132;52.268;5.192;2022-09-29T06:14:49;99999.81;;;3.33;100.00
74627;BME280;63132;52.268;5.192;2022-09-29T06:17:15;99994.28;;;3.26;99.70
74627;BME280;63132;52.268;5.192;2022-09-29T06:19:40;99999.41;;;3.31;100.00
74627;BME280;63132;52.268;5.192;2022-09-29T06:22:05;100003.78;;;3.36;100.00
74627;BME280;63132;52.268;5.192;2022-09-29T06:24:31;99999.09;;;3.37;100.00
74627;BME280;63132;52.268;5.192;2022-09-29T06:26:56;99997.59;;;3.43;100.00
74627;BME280;63132;52.268;5.192;2022-09-29T06:29:22;100005.53;;;3.55;100.00
74627;BME280;63132;52.268;5.192;2022-09-29T06:31:47;100007.09;;;3.56;100.00
74627;BME280;63132;52.268;5.192;2022-09-29T06:34:12;100008.72;;;3.64;100.00
74627;BME280;63132;52.268;5.192;2022-09-29T06:36:43;100008.31;;;3.62;100.00
74627;BME280;63132;52.268;5.192;2022-09-29T06:39:27;100009.59;;;3.72;100.00
74627;BME280;63132;52.268;5.192;2022-09-29T06:41:53;100012.69;;;3.67;99.90
74627;BME280;63132;52.268;5.192;2022-09-29T06:44:23;100016.66;;;3.73;100.00
74627;BME280;63132;52.268;5.192;2022-09-29T06:46:49;100023.34;;;3.79;100.00
74627;BME280;63132;52.268;5.192;2022-09-29T06:49:15;100028.41;;;3.77;100.00
74627;BME280;63132;52.268;5.192;2022-09-29T06:51:41;100020.97;;;3.77;100.00
74627;BME280;63132;52.268;5.192;2022-09-29T06:54:08;100023.34;;;3.79;99.71
74627;BME280;63132;52.268;5.192;2022-09-29T06:56:34;100033.63;;;3.89;100.00
74627;BME280;63132;52.268;5.192;2022-09-29T06:58:59;100031.28;;;3.91;100.00
74627;BME280;63132;52.268;5.192;2022-09-29T07:01:25;100034.09;;;4.02;100.00
74627;BME280;63132;52.268;5.192;2022-09-29T07:03:50;100034.59;;;4.14;100.00
74627;BME280;63132;52.268;5.192;2022-09-29T07:06:16;100047.22;;;4.26;100.00
74627;BME280;63132;52.268;5.192;2022-09-29T07:08:41;100039.84;;;4.34;100.00
74627;BME280;63132;52.268;5.192;2022-09-29T07:11:07;100039.88;;;4.37;100.00
74627;BME280;63132;52.268;5.192;2022-09-29T07:13:33;100036.78;;;4.42;100.00
74627;BME280;63132;52.268;5.192;2022-09-29T07:16:10;100044.66;;;4.51;100.00
74627;BME280;63132;52.268;5.192;2022-09-29T07:18:38;100039.22;;;4.58;100.00
74627;BME280;63132;52.268;5.192;2022-09-29T07:21:05;100040.09;;;4.73;100.00
74627;BME280;63132;52.268;5.192;2022-09-29T07:23:31;100045.63;;;4.84;100.00
74627;BME280;63132;52.268;5.192;2022-09-29T07:25:57;100047.25;;;4.92;100.00
74627;BME280;63132;52.268;5.192;2022-09-29T07:28:23;100054.72;;;4.95;100.00
74627;BME280;63132;52.268;5.192;2022-09-29T07:30:59;100059.88;;;5.11;100.00
74627;BME280;63132;52.268;5.192;2022-09-29T07:33:25;100054.41;;;5.14;100.00
74627;BME280;63132;52.268;5.192;2022-09-29T07:35:52;100064.63;;;5.17;100.00
74627;BME280;63132;52.268;5.192;2022-09-29T07:38:17;100063.88;;;5.31;100.00
74627;BME280;63132;52.268;5.192;2022-09-29T07:40:42;100068.22;;;5.39;100.00
74627;BME280;63132;52.268;5.192;2022-09-29T07:43:08;100065.94;;;5.52;100.00
74627;BME280;63132;52.268;5.192;2022-09-29T07:45:34;100074.16;;;5.55;100.00
74627;BME280;63132;52.268;5.192;2022-09-29T07:47:59;100083.19;;;5.56;100.00
74627;BME280;63132;52.268;5.192;2022-09-29T07:50:25;100078.88;;;5.59;100.00
74627;BME280;63132;52.268;5.192;2022-09-29T07:52:50;100084.00;;;5.67;100.00
74627;BME280;63132;52.268;5.192;2022-09-29T07:55:16;100092.28;;;5.81;100.00
74627;BME280;63132;52.268;5.192;2022-09-29T07:57:41;100088.38;;;5.82;100.00
74627;BME280;63132;52.268;5.192;2022-09-29T08:00:08;100091.97;;;6.08;100.00
74627;BME280;63132;52.268;5.192;2022-09-29T08:02:33;100099.41;;;6.00;100.00
74627;BME280;63132;52.268;5.192;2022-09-29T08:04:58;100105.72;;;6.15;100.00
74627;BME280;63132;52.268;5.192;2022-09-29T08:07:24;100100.63;;;6.21;100.00
74627;BME280;63132;52.268;5.192;2022-09-29T08:09:49;100105.72;;;6.29;100.00
74627;BME280;63132;52.268;5.192;2022-09-29T08:12:15;100104.53;;;6.37;100.00
74627;BME280;63132;52.268;5.192;2022-09-29T08:14:43;100111.22;;;6.47;100.00
74627;BME280;63132;52.268;5.192;2022-09-29T08:17:08;100115.53;;;6.55;100.00
74627;BME280;63132;52.268;5.192;2022-09-29T08:19:34;100106.09;;;6.60;100.00
74627;BME280;63132;52.268;5.192;2022-09-29T08:21:59;100110.81;;;6.66;100.00
74627;BME280;63132;52.268;5.192;2022-09-29T08:24:25;100111.97;;;6.90;100.00
74627;BME280;63132;52.268;5.192;2022-09-29T08:26:50;100116.69;;;6.90;100.00
74627;BME280;63132;52.268;5.192;2022-09-29T08:29:15;100115.06;;;7.00;100.00
74627;BME280;63132;52.268;5.192;2022-09-29T08:31:41;100128.47;;;7.01;100.00
74627;BME280;63132;52.268;5.192;2022-09-29T08:34:08;100124.09;;;7.11;100.00
74627;BME280;63132;52.268;5.192;2022-09-29T08:36:34;100124.34;;;7.52;100.00
74627;BME280;63132;52.268;5.192;2022-09-29T08:39:01;100128.56;;;7.78;100.00
74627;BME280;63132;52.268;5.192;2022-09-29T08:43:56;100142.78;;;7.66;100.00
74627;BME280;63132;52.268;5.192;2022-09-29T08:46:44;100144.72;;;7.72;99.93
74627;BME280;63132;52.268;5.192;2022-09-29T08:49:36;100147.00;;;7.88;100.00
74627;BME280;63132;52.268;5.192;2022-09-29T08:52:12;100147.75;;;7.96;100.00
74627;BME280;63132;52.268;5.192;2022-09-29T08:54:40;100152.84;;;8.01;100.00
74627;BME280;63132;52.268;5.192;2022-09-29T08:57:15;100156.31;;;8.16;100.00
74627;BME280;63132;52.268;5.192;2022-09-29T08:59:54;100151.22;;;8.14;99.74
74627;BME280;63132;52.268;5.192;2022-09-29T09:13:15;100163.06;;;8.67;99.92
74627;BME280;63132;52.268;5.192;2022-09-29T09:26:04;100173.84;;;8.99;98.76
74627;BME280;63132;52.268;5.192;2022-09-29T09:28:41;100170.94;;;9.13;98.08
74627;BME280;63132;52.268;5.192;2022-09-29T09:31:15;100171.31;;;9.15;96.57
74627;BME280;63132;52.268;5.192;2022-09-29T09:33:52;100172.47;;;9.18;98.05
74627;BME280;63132;52.268;5.192;2022-09-29T09:36:28;100166.97;;;9.18;96.95
74627;BME280;63132;52.268;5.192;2022-09-29T09:39:06;100171.69;;;9.17;97.95
74627;BME280;63132;52.268;5.192;2022-09-29T09:41:39;100170.34;;;9.32;97.27
74627;BME280;63132;52.268;5.192;2022-09-29T09:46:51;100171.44;;;9.38;96.86
74627;BME280;63132;52.268;5.192;2022-09-29T09:49:38;100174.75;;;9.26;95.19
74627;BME280;63132;52.268;5.192;2022-09-29T09:54:55;100186.00;;;9.46;96.10
74627;BME280;63132;52.268;5.192;2022-09-29T10:02:43;100183.47;;;9.59;95.78
74627;BME280;63132;52.268;5.192;2022-09-29T10:05:20;100186.13;;;9.69;95.12
74627;BME280;63132;52.268;5.192;2022-09-29T10:07:48;100187.41;;;9.92;94.22
74627;BME280;63132;52.268;5.192;2022-09-29T10:10:17;100185.03;;;9.94;94.04
74627;BME280;63132;52.268;5.192;2022-09-29T10:12:43;100181.69;;;10.37;91.72
74627;BME280;63132;52.268;5.192;2022-09-29T10:15:28;100183.09;;;10.48;91.57
74627;BME280;63132;52.268;5.192;2022-09-29T10:20:36;100181.88;;;10.49;90.57
74627;BME280;63132;52.268;5.192;2022-09-29T10:23:18;100183.97;;;10.42;90.25
74627;BME280;63132;52.268;5.192;2022-09-29T10:25:53;100179.13;;;10.22;90.03
74627;BME280;63132;52.268;5.192;2022-09-29T10:28:21;100181.47;;;10.20;92.46
74627;BME280;63132;52.268;5.192;2022-09-29T10:30:47;100179.91;;;10.23;93.19
74627;BME280;63132;52.268;5.192;2022-09-29T10:33:16;100190.06;;;10.57;90.66
74627;BME280;63132;52.268;5.192;2022-09-29T10:35:43;100189.25;;;10.60;91.18
74627;BME280;63132;52.268;5.192;2022-09-29T10:38:16;100185.75;;;10.79;87.81
74627;BME280;63132;52.268;5.192;2022-09-29T10:40:56;100187.19;;;10.87;91.74
74627;BME280;63132;52.268;5.192;2022-09-29T10:43:42;100190.00;;;11.11;92.03
74627;BME280;63132;52.268;5.192;2022-09-29T10:51:36;100193.59;;;11.07;85.88
74627;BME280;63132;52.268;5.192;2022-09-29T10:54:07;100193.84;;;10.93;84.58
74627;BME280;63132;52.268;5.192;2022-09-29T10:56:33;100197.44;;;11.14;79.44
74627;BME280;63132;52.268;5.192;2022-09-29T10:59:00;100200.00;;;10.81;79.43
74627;BME280;63132;52.268;5.192;2022-09-29T11:01:27;100201.56;;;10.82;82.79
74627;BME280;63132;52.268;5.192;2022-09-29T11:04:00;100205.16;;;11.02;85.07
74627;BME280;63132;52.268;5.192;2022-09-29T11:06:35;100201.06;;;11.34;82.85
74627;BME280;63132;52.268;5.192;2022-09-29T11:11:34;100209.00;;;11.32;77.20
74627;BME280;63132;52.268;5.192;2022-09-29T11:14:00;100212.72;;;11.45;80.95
74627;BME280;63132;52.268;5.192;2022-09-29T11:19:02;100207.13;;;12.08;82.66
74627;BME280;63132;52.268;5.192;2022-09-29T11:45:35;100218.31;;;12.73;70.99
74627;BME280;63132;52.268;5.192;2022-09-29T11:56:15;100218.81;;;13.79;67.21
74627;BME280;63132;52.268;5.192;2022-09-29T11:58:59;100220.22;;;13.42;65.08
74627;BME280;63132;52.268;5.192;2022-09-29T12:14:59;100244.47;;;13.70;69.06
74627;BME280;63132;52.268;5.192;2022-09-29T12:17:29;100236.75;;;13.91;67.81
74627;BME280;63132;52.268;5.192;2022-09-29T12:20:03;100240.09;;;13.85;68.37
74627;BME280;63132;52.268;5.192;2022-09-29T12:22:30;100240.91;;;13.70;65.10
74627;BME280;63132;52.268;5.192;2022-09-29T12:24:58;100241.88;;;13.92;63.70
74627;BME280;63132;52.268;5.192;2022-09-29T12:27:28;100245.22;;;13.58;66.26
74627;BME280;63132;52.268;5.192;2022-09-29T12:30:29;100247.03;;;14.06;65.94
74627;BME280;63132;52.268;5.192;2022-09-29T12:33:14;100250.22;;;13.34;70.70
74627;BME280;63132;52.268;5.192;2022-09-29T12:35:47;100246.13;;;13.39;69.03
74627;BME280;63132;52.268;5.192;2022-09-29T12:38:38;100250.41;;;13.27;72.86
74627;BME280;63132;52.268;5.192;2022-09-29T12:41:20;100243.09;;;13.00;72.37
74627;BME280;63132;52.268;5.192;2022-09-29T12:43:52;100239.78;;;12.73;74.74
74627;BME280;63132;52.268;5.192;2022-09-29T12:46:35;100249.09;;;12.66;73.07
74627;BME280;63132;52.268;5.192;2022-09-29T12:49:14;100245.16;;;12.64;73.82
74627;BME280;63132;52.268;5.192;2022-09-29T12:51:47;100248.16;;;12.37;73.74
74627;BME280;63132;52.268;5.192;2022-09-29T12:57:08;100246.38;;;12.27;73.12
74627;BME280;63132;52.268;5.192;2022-09-29T13:10:45;100256.97;;;11.72;77.50
74627;BME280;63132;52.268;5.192;2022-09-29T13:15:52;100260.31;;;11.63;77.69
74627;BME280;63132;52.268;5.192;2022-09-29T13:24:19;100262.22;;;11.67;75.31
74627;BME280;63132;52.268;5.192;2022-09-29T13:29:17;100264.91;;;11.50;76.87
74627;BME280;63132;52.268;5.192;2022-09-29T13:31:45;100273.72;;;11.45;77.50
74627;BME280;63132;52.268;5.192;2022-09-29T13:36:46;100273.03;;;11.37;76.97
74627;BME280;63132;52.268;5.192;2022-09-29T13:39:26;100275.13;;;11.33;76.78
74627;BME280;63132;52.268;5.192;2022-09-29T13:41:53;100285.34;;;11.36;76.08
74627;BME280;63132;52.268;5.192;2022-09-29T13:44:21;100283.81;;;11.32;76.21
74627;BME280;63132;52.268;5.192;2022-09-29T13:46:48;100288.00;;;11.44;76.23
74627;BME280;63132;52.268;5.192;2022-09-29T13:51:55;100271.75;;;11.65;69.16
74627;BME280;63132;52.268;5.192;2022-09-29T13:54:26;100274.97;;;11.64;68.79
74627;BME280;63132;52.268;5.192;2022-09-29T13:59:24;100278.56;;;11.84;67.60
74627;BME280;63132;52.268;5.192;2022-09-29T14:01:51;100271.13;;;11.78;67.58
74627;BME280;63132;52.268;5.192;2022-09-29T14:07:10;100287.19;;;11.67;69.43
74627;BME280;63132;52.268;5.192;2022-09-29T14:09:41;100287.31;;;11.59;69.67
74627;BME280;63132;52.268;5.192;2022-09-29T14:12:15;100287.13;;;11.70;70.39
74627;BME280;63132;52.268;5.192;2022-09-29T14:14:48;100282.72;;;11.73;71.47
74627;BME280;63132;52.268;5.192;2022-09-29T14:17:30;100291.50;;;11.91;67.61
74627;BME280;63132;52.268;5.192;2022-09-29T14:20:07;100286.41;;;12.09;66.02
74627;BME280;63132;52.268;5.192;2022-09-29T14:27:39;100292.66;;;12.33;66.33
74627;BME280;63132;52.268;5.192;2022-09-29T14:30:17;100290.84;;;12.43;63.27
74627;BME280;63132;52.268;5.192;2022-09-29T14:33:03;100296.06;;;12.41;64.38
74627;BME280;63132;52.268;5.192;2022-09-29T14:35:38;100293.38;;;12.37;63.07
74627;BME280;63132;52.268;5.192;2022-09-29T14:38:28;100296.28;;;12.30;63.68
74627;BME280;63132;52.268;5.192;2022-09-29T14:41:00;100296.78;;;12.45;63.19
74627;BME280;63132;52.268;5.192;2022-09-29T14:54:49;100303.88;;;12.46;66.20
74627;BME280;63132;52.268;5.192;2022-09-29T15:00:34;100309.44;;;12.82;64.45
74627;BME280;63132;52.268;5.192;2022-09-29T15:02:45;100316.56;;;12.83;64.13
74627;BME280;63132;52.268;5.192;2022-09-29T15:05:32;100315.38;;;12.64;62.87
74627;BME280;63132;52.268;5.192;2022-09-29T15:08:01;100323.09;;;12.57;65.86
74627;BME280;63132;52.268;5.192;2022-09-29T15:10:37;100324.53;;;12.45;64.17
74627;BME280;63132;52.268;5.192;2022-09-29T15:13:28;100324.44;;;12.68;63.51
74627;BME280;63132;52.268;5.192;2022-09-29T15:16:03;100325.44;;;12.58;64.39
74627;BME280;63132;52.268;5.192;2022-09-29T15:26:41;100334.84;;;12.81;58.82
74627;BME280;63132;52.268;5.192;2022-09-29T15:29:13;100330.53;;;12.96;58.88
74627;BME280;63132;52.268;5.192;2022-09-29T15:31:42;100340.84;;;12.79;58.81
74627;BME280;63132;52.268;5.192;2022-09-29T15:34:17;100337.44;;;12.71;58.94
74627;BME280;63132;52.268;5.192;2022-09-29T15:36:47;100330.88;;;12.45;60.98
74627;BME280;63132;52.268;5.192;2022-09-29T15:42:17;100336.00;;;12.47;59.95
74627;BME280;63132;52.268;5.192;2022-09-29T15:44:51;100339.28;;;12.22;61.71
74627;BME280;63132;52.268;5.192;2022-09-29T15:47:35;100344.28;;;12.31;61.02
74627;BME280;63132;52.268;5.192;2022-09-29T15:50:19;100348.94;;;12.34;59.44
74627;BME280;63132;52.268;5.192;2022-09-29T15:52:46;100346.25;;;12.30;60.48
74627;BME280;63132;52.268;5.192;2022-09-29T15:55:30;100349.66;;;12.18;62.79
74627;BME280;63132;52.268;5.192;2022-09-29T15:57:56;100349.38;;;12.12;61.39
74627;BME280;63132;52.268;5.192;2022-09-29T16:05:40;100363.06;;;12.23;63.30
74627;BME280;63132;52.268;5.192;2022-09-29T16:08:18;100357.50;;;12.23;61.17
74627;BME280;63132;52.268;5.192;2022-09-29T16:10:51;100367.09;;;12.18;61.56
74627;BME280;63132;52.268;5.192;2022-09-29T16:13:24;100363.47;;;12.22;59.61
74627;BME280;63132;52.268;5.192;2022-09-29T16:15:54;100377.22;;;12.29;61.74
74627;BME280;63132;52.268;5.192;2022-09-29T16:18:24;100369.81;;;12.42;59.19
74627;BME280;63132;52.268;5.192;2022-09-29T16:20:52;100379.34;;;12.41;59.21
74627;BME280;63132;52.268;5.192;2022-09-29T16:23:35;100381.94;;;12.32;59.66
74627;BME280;63132;52.268;5.192;2022-09-29T16:28:37;100395.13;;;12.04;64.09